sensor_id;sensor_type;location;lat;lon;timestamp;P1;durP1;ratioP1;P2;durP2;ratioP2
22080;SDS011;11207;59.512;18.050;2024-01-16T00:00:33;5.53;;;5.03;;
22080;SDS011;11207;59.512;18.050;2024-01-16T00:02:59;4.90;;;4.60;;
22080;SDS011;11207;59.512;18.050;2024-01-16T00:05:24;4.90;;;4.60;;
22080;SDS011;11207;59.512;18.050;2024-01-16T00:07:50;4.80;;;4.50;;
22080;SDS011;11207;59.512;18.050;2024-01-16T00:10:15;5.00;;;4.70;;
22080;SDS011;11207;59.512;18.050;2024-01-16T00:12:41;5.20;;;4.90;;
22080;SDS011;11207;59.512;18.050;2024-01-16T00:15:07;4.90;;;4.60;;
22080;SDS011;11207;59.512;18.050;2024-01-16T00:17:33;4.80;;;4.50;;
22080;SDS011;11207;59.512;18.050;2024-01-16T00:19:59;5.27;;;4.93;;
22080;SDS011;11207;59.512;18.050;2024-01-16T00:22:28;5.50;;;5.13;;
22080;SDS011;11207;59.512;18.050;2024-01-16T00:24:54;4.90;;;4.60;;
22080;SDS011;11207;59.512;18.050;2024-01-16T00:27:20;5.00;;;4.70;;
22080;SDS011;11207;59.512;18.050;2024-01-16T00:29:46;5.17;;;4.73;;
22080;SDS011;11207;59.512;18.050;2024-01-16T00:32:11;5.03;;;4.73;;
22080;SDS011;11207;59.512;18.050;2024-01-16T00:34:41;4.87;;;4.57;;
22080;SDS011;11207;59.512;18.050;2024-01-16T00:37:07;5.10;;;4.70;;
22080;SDS011;11207;59.512;18.050;2024-01-16T00:39:33;5.00;;;4.70;;
22080;SDS011;11207;59.512;18.050;2024-01-16T00:41:59;5.03;;;4.73;;
22080;SDS011;11207;59.512;18.050;2024-01-16T00:44:27;5.00;;;4.70;;
22080;SDS011;11207;59.512;18.050;2024-01-16T00:46:53;5.30;;;4.90;;
22080;SDS011;11207;59.512;18.050;2024-01-16T00:49:19;5.30;;;5.00;;
22080;SDS011;11207;59.512;18.050;2024-01-16T00:51:45;5.30;;;4.53;;
22080;SDS011;11207;59.512;18.050;2024-01-16T00:54:10;5.07;;;4.77;;
22080;SDS011;11207;59.512;18.050;2024-01-16T00:56:36;4.93;;;4.63;;
22080;SDS011;11207;59.512;18.050;2024-01-16T00:59:02;4.80;;;4.50;;
22080;SDS011;11207;59.512;18.050;2024-01-16T01:01:27;4.70;;;4.40;;
22080;SDS011;11207;59.512;18.050;2024-01-16T01:03:53;4.80;;;4.50;;
22080;SDS011;11207;59.512;18.050;2024-01-16T01:06:20;5.73;;;4.63;;
22080;SDS011;11207;59.512;18.050;2024-01-16T01:08:46;5.20;;;4.80;;
22080;SDS011;11207;59.512;18.050;2024-01-16T01:11:11;4.90;;;4.60;;
22080;SDS011;11207;59.512;18.050;2024-01-16T01:13:37;5.10;;;4.60;;
22080;SDS011;11207;59.512;18.050;2024-01-16T01:16:03;4.53;;;4.20;;
22080;SDS011;11207;59.512;18.050;2024-01-16T01:18:29;5.00;;;4.70;;
22080;SDS011;11207;59.512;18.050;2024-01-16T01:20:54;5.33;;;5.03;;
22080;SDS011;11207;59.512;18.050;2024-01-16T01:23:21;4.67;;;4.37;;
22080;SDS011;11207;59.512;18.050;2024-01-16T01:25:46;4.70;;;4.40;;
22080;SDS011;11207;59.512;18.050;2024-01-16T01:28:12;4.93;;;4.63;;
22080;SDS011;11207;59.512;18.050;2024-01-16T01:30:37;4.90;;;4.60;;
22080;SDS011;11207;59.512;18.050;2024-01-16T01:33:03;5.17;;;4.87;;
22080;SDS011;11207;59.512;18.050;2024-01-16T01:35:29;4.93;;;4.63;;
22080;SDS011;11207;59.512;18.050;2024-01-16T01:37:55;4.80;;;4.50;;
22080;SDS011;11207;59.512;18.050;2024-01-16T01:40:20;4.60;;;4.33;;
22080;SDS011;11207;59.512;18.050;2024-01-16T01:42:46;4.83;;;4.53;;
22080;SDS011;11207;59.512;18.050;2024-01-16T01:45:12;4.63;;;4.33;;
22080;SDS011;11207;59.512;18.050;2024-01-16T01:47:38;4.70;;;4.50;;
22080;SDS011;11207;59.512;18.050;2024-01-16T01:50:05;5.27;;;4.97;;
22080;SDS011;11207;59.512;18.050;2024-01-16T01:52:33;5.07;;;4.67;;
22080;SDS011;11207;59.512;18.050;2024-01-16T01:54:58;4.70;;;4.47;;
22080;SDS011;11207;59.512;18.050;2024-01-16T01:57:26;4.90;;;4.57;;
22080;SDS011;11207;59.512;18.050;2024-01-16T01:59:52;5.47;;;4.97;;
22080;SDS011;11207;59.512;18.050;2024-01-16T02:02:18;4.60;;;4.40;;
22080;SDS011;11207;59.512;18.050;2024-01-16T02:04:45;4.80;;;4.50;;
22080;SDS011;11207;59.512;18.050;2024-01-16T02:07:11;4.67;;;4.37;;
22080;SDS011;11207;59.512;18.050;2024-01-16T02:09:37;4.87;;;4.57;;
22080;SDS011;11207;59.512;18.050;2024-01-16T02:12:03;5.00;;;4.70;;
22080;SDS011;11207;59.512;18.050;2024-01-16T02:14:30;4.50;;;4.30;;
22080;SDS011;11207;59.512;18.050;2024-01-16T02:16:55;4.80;;;4.60;;
22080;SDS011;11207;59.512;18.050;2024-01-16T02:19:21;4.50;;;4.30;;
22080;SDS011;11207;59.512;18.050;2024-01-16T02:21:47;4.80;;;4.50;;
22080;SDS011;11207;59.512;18.050;2024-01-16T02:24:13;4.60;;;4.40;;
22080;SDS011;11207;59.512;18.050;2024-01-16T02:26:41;4.67;;;4.47;;
22080;SDS011;11207;59.512;18.050;2024-01-16T02:29:07;5.07;;;4.77;;
22080;SDS011;11207;59.512;18.050;2024-01-16T02:31:33;4.40;;;4.20;;
22080;SDS011;11207;59.512;18.050;2024-01-16T02:33:59;5.10;;;4.80;;
22080;SDS011;11207;59.512;18.050;2024-01-16T02:36:25;4.87;;;4.67;;
22080;SDS011;11207;59.512;18.050;2024-01-16T02:38:52;4.47;;;4.20;;
22080;SDS011;11207;59.512;18.050;2024-01-16T02:41:21;5.00;;;4.70;;
22080;SDS011;11207;59.512;18.050;2024-01-16T02:43:48;4.70;;;4.50;;
22080;SDS011;11207;59.512;18.050;2024-01-16T02:46:14;4.93;;;4.63;;
22080;SDS011;11207;59.512;18.050;2024-01-16T02:48:40;4.60;;;4.30;;
22080;SDS011;11207;59.512;18.050;2024-01-16T02:51:07;4.77;;;4.33;;
22080;SDS011;11207;59.512;18.050;2024-01-16T02:53:33;4.63;;;4.43;;
22080;SDS011;11207;59.512;18.050;2024-01-16T02:55:59;4.30;;;4.00;;
22080;SDS011;11207;59.512;18.050;2024-01-16T02:58:28;5.33;;;5.03;;
22080;SDS011;11207;59.512;18.050;2024-01-16T03:00:56;4.70;;;4.50;;
22080;SDS011;11207;59.512;18.050;2024-01-16T03:03:22;4.70;;;4.50;;
22080;SDS011;11207;59.512;18.050;2024-01-16T03:05:49;4.87;;;4.47;;
22080;SDS011;11207;59.512;18.050;2024-01-16T03:08:14;4.80;;;4.60;;
22080;SDS011;11207;59.512;18.050;2024-01-16T03:10:40;4.67;;;4.47;;
22080;SDS011;11207;59.512;18.050;2024-01-16T03:13:06;5.13;;;4.80;;
22080;SDS011;11207;59.512;18.050;2024-01-16T03:15:32;4.60;;;4.40;;
22080;SDS011;11207;59.512;18.050;2024-01-16T03:17:58;4.90;;;4.53;;
22080;SDS011;11207;59.512;18.050;2024-01-16T03:20:24;5.10;;;4.80;;
22080;SDS011;11207;59.512;18.050;2024-01-16T03:22:49;5.10;;;4.80;;
22080;SDS011;11207;59.512;18.050;2024-01-16T03:25:18;4.90;;;4.70;;
22080;SDS011;11207;59.512;18.050;2024-01-16T03:27:44;4.97;;;4.43;;
22080;SDS011;11207;59.512;18.050;2024-01-16T03:30:09;5.07;;;4.77;;
22080;SDS011;11207;59.512;18.050;2024-01-16T03:32:35;4.93;;;4.60;;
22080;SDS011;11207;59.512;18.050;2024-01-16T03:35:02;5.03;;;4.73;;
22080;SDS011;11207;59.512;18.050;2024-01-16T03:37:28;4.60;;;4.40;;
22080;SDS011;11207;59.512;18.050;2024-01-16T03:39:53;4.63;;;4.33;;
22080;SDS011;11207;59.512;18.050;2024-01-16T03:42:19;4.70;;;4.50;;
22080;SDS011;11207;59.512;18.050;2024-01-16T03:44:46;4.73;;;4.47;;
22080;SDS011;11207;59.512;18.050;2024-01-16T03:47:12;4.73;;;4.50;;
22080;SDS011;11207;59.512;18.050;2024-01-16T03:49:37;4.83;;;4.53;;
22080;SDS011;11207;59.512;18.050;2024-01-16T03:52:03;4.70;;;4.40;;
22080;SDS011;11207;59.512;18.050;2024-01-16T03:54:29;4.60;;;4.30;;
22080;SDS011;11207;59.512;18.050;2024-01-16T03:56:54;4.90;;;4.57;;
22080;SDS011;11207;59.512;18.050;2024-01-16T03:59:21;4.47;;;4.27;;
22080;SDS011;11207;59.512;18.050;2024-01-16T04:01:46;4.80;;;4.50;;
22080;SDS011;11207;59.512;18.050;2024-01-16T04:04:14;4.60;;;4.40;;
22080;SDS011;11207;59.512;18.050;2024-01-16T04:06:39;4.50;;;4.30;;
22080;SDS011;11207;59.512;18.050;2024-01-16T04:09:05;4.43;;;4.20;;
22080;SDS011;11207;59.512;18.050;2024-01-16T04:11:32;4.50;;;4.20;;
22080;SDS011;11207;59.512;18.050;2024-01-16T04:13:57;4.50;;;4.30;;
22080;SDS011;11207;59.512;18.050;2024-01-16T04:16:23;4.80;;;4.50;;
22080;SDS011;11207;59.512;18.050;2024-01-16T04:18:49;5.37;;;5.00;;
22080;SDS011;11207;59.512;18.050;2024-01-16T04:21:14;4.60;;;4.30;;
22080;SDS011;11207;59.512;18.050;2024-01-16T04:23:41;4.40;;;4.20;;
22080;SDS011;11207;59.512;18.050;2024-01-16T04:26:07;5.37;;;4.60;;
22080;SDS011;11207;59.512;18.050;2024-01-16T04:28:33;5.10;;;4.70;;
22080;SDS011;11207;59.512;18.050;2024-01-16T04:30:59;4.40;;;4.20;;
22080;SDS011;11207;59.512;18.050;2024-01-16T04:33:26;4.83;;;4.63;;
22080;SDS011;11207;59.512;18.050;2024-01-16T04:35:52;5.40;;;5.10;;
22080;SDS011;11207;59.512;18.050;2024-01-16T04:38:17;5.10;;;4.80;;
22080;SDS011;11207;59.512;18.050;2024-01-16T04:40:43;4.70;;;4.40;;
22080;SDS011;11207;59.512;18.050;2024-01-16T04:43:08;4.47;;;4.27;;
22080;SDS011;11207;59.512;18.050;2024-01-16T04:45:34;4.97;;;4.67;;
22080;SDS011;11207;59.512;18.050;2024-01-16T04:48:00;4.80;;;4.50;;
22080;SDS011;11207;59.512;18.050;2024-01-16T04:50:25;4.97;;;4.67;;
22080;SDS011;11207;59.512;18.050;2024-01-16T04:52:56;4.60;;;4.40;;
22080;SDS011;11207;59.512;18.050;2024-01-16T04:55:26;5.33;;;5.03;;
22080;SDS011;11207;59.512;18.050;2024-01-16T04:57:52;4.73;;;4.43;;
22080;SDS011;11207;59.512;18.050;2024-01-16T05:00:18;4.80;;;4.60;;
22080;SDS011;11207;59.512;18.050;2024-01-16T05:02:45;4.60;;;4.40;;
22080;SDS011;11207;59.512;18.050;2024-01-16T05:05:11;5.00;;;4.60;;
22080;SDS011;11207;59.512;18.050;2024-01-16T05:07:37;4.63;;;4.43;;
22080;SDS011;11207;59.512;18.050;2024-01-16T05:10:03;4.87;;;4.67;;
22080;SDS011;11207;59.512;18.050;2024-01-16T05:12:29;4.70;;;4.50;;
22080;SDS011;11207;59.512;18.050;2024-01-16T05:14:54;4.93;;;4.63;;
22080;SDS011;11207;59.512;18.050;2024-01-16T05:17:20;4.93;;;4.63;;
22080;SDS011;11207;59.512;18.050;2024-01-16T05:19:46;4.40;;;4.20;;
22080;SDS011;11207;59.512;18.050;2024-01-16T05:22:11;4.93;;;4.63;;
22080;SDS011;11207;59.512;18.050;2024-01-16T05:24:37;5.00;;;4.60;;
22080;SDS011;11207;59.512;18.050;2024-01-16T05:27:02;4.63;;;4.33;;
22080;SDS011;11207;59.512;18.050;2024-01-16T05:29:29;4.83;;;4.53;;
22080;SDS011;11207;59.512;18.050;2024-01-16T05:31:56;5.10;;;4.80;;
22080;SDS011;11207;59.512;18.050;2024-01-16T05:34:21;4.97;;;4.67;;
22080;SDS011;11207;59.512;18.050;2024-01-16T05:36:47;5.07;;;4.77;;
22080;SDS011;11207;59.512;18.050;2024-01-16T05:39:13;4.53;;;4.33;;
22080;SDS011;11207;59.512;18.050;2024-01-16T05:41:44;4.80;;;4.50;;
22080;SDS011;11207;59.512;18.050;2024-01-16T05:44:16;4.80;;;4.50;;
22080;SDS011;11207;59.512;18.050;2024-01-16T05:46:48;5.20;;;4.83;;
22080;SDS011;11207;59.512;18.050;2024-01-16T05:49:20;4.50;;;4.30;;
22080;SDS011;11207;59.512;18.050;2024-01-16T05:51:52;4.50;;;4.30;;
22080;SDS011;11207;59.512;18.050;2024-01-16T05:54:18;5.17;;;4.97;;
22080;SDS011;11207;59.512;18.050;2024-01-16T05:56:43;5.30;;;5.00;;
22080;SDS011;11207;59.512;18.050;2024-01-16T05:59:09;4.70;;;4.40;;
22080;SDS011;11207;59.512;18.050;2024-01-16T06:01:34;4.57;;;4.37;;
22080;SDS011;11207;59.512;18.050;2024-01-16T06:04:00;4.40;;;4.20;;
22080;SDS011;11207;59.512;18.050;2024-01-16T06:06:26;4.90;;;4.53;;
22080;SDS011;11207;59.512;18.050;2024-01-16T06:08:51;5.10;;;4.80;;
22080;SDS011;11207;59.512;18.050;2024-01-16T06:11:17;7.10;;;6.37;;
22080;SDS011;11207;59.512;18.050;2024-01-16T06:13:44;5.20;;;4.87;;
22080;SDS011;11207;59.512;18.050;2024-01-16T06:16:10;4.80;;;4.60;;
22080;SDS011;11207;59.512;18.050;2024-01-16T06:18:35;4.80;;;4.50;;
22080;SDS011;11207;59.512;18.050;2024-01-16T06:21:02;5.73;;;5.20;;
22080;SDS011;11207;59.512;18.050;2024-01-16T06:23:28;5.77;;;5.37;;
22080;SDS011;11207;59.512;18.050;2024-01-16T06:25:54;5.03;;;4.73;;
22080;SDS011;11207;59.512;18.050;2024-01-16T06:28:20;5.30;;;5.00;;
22080;SDS011;11207;59.512;18.050;2024-01-16T06:30:45;4.60;;;4.40;;
22080;SDS011;11207;59.512;18.050;2024-01-16T06:33:11;4.90;;;4.60;;
22080;SDS011;11207;59.512;18.050;2024-01-16T06:35:36;5.00;;;4.70;;
22080;SDS011;11207;59.512;18.050;2024-01-16T06:38:02;4.57;;;4.37;;
22080;SDS011;11207;59.512;18.050;2024-01-16T06:40:28;4.87;;;4.57;;
22080;SDS011;11207;59.512;18.050;2024-01-16T06:42:54;6.90;;;6.20;;
22080;SDS011;11207;59.512;18.050;2024-01-16T06:45:19;7.93;;;7.03;;
22080;SDS011;11207;59.512;18.050;2024-01-16T06:47:45;6.07;;;5.40;;
22080;SDS011;11207;59.512;18.050;2024-01-16T06:50:10;6.43;;;5.83;;
22080;SDS011;11207;59.512;18.050;2024-01-16T06:52:36;6.50;;;6.00;;
22080;SDS011;11207;59.512;18.050;2024-01-16T06:55:02;5.33;;;4.87;;
22080;SDS011;11207;59.512;18.050;2024-01-16T06:57:27;5.60;;;5.20;;
22080;SDS011;11207;59.512;18.050;2024-01-16T06:59:53;5.23;;;4.93;;
22080;SDS011;11207;59.512;18.050;2024-01-16T07:02:18;5.73;;;5.33;;
22080;SDS011;11207;59.512;18.050;2024-01-16T07:04:44;6.73;;;5.90;;
22080;SDS011;11207;59.512;18.050;2024-01-16T07:07:10;8.87;;;7.50;;
22080;SDS011;11207;59.512;18.050;2024-01-16T07:09:36;14.33;;;9.20;;
22080;SDS011;11207;59.512;18.050;2024-01-16T07:12:02;38.50;;;16.13;;
22080;SDS011;11207;59.512;18.050;2024-01-16T07:14:28;28.90;;;13.30;;
22080;SDS011;11207;59.512;18.050;2024-01-16T07:16:54;17.30;;;8.63;;
22080;SDS011;11207;59.512;18.050;2024-01-16T07:19:20;12.47;;;6.83;;
22080;SDS011;11207;59.512;18.050;2024-01-16T07:21:45;5.37;;;4.87;;
22080;SDS011;11207;59.512;18.050;2024-01-16T07:24:11;5.80;;;5.40;;
22080;SDS011;11207;59.512;18.050;2024-01-16T07:26:38;4.70;;;4.43;;
22080;SDS011;11207;59.512;18.050;2024-01-16T07:29:03;4.80;;;4.60;;
22080;SDS011;11207;59.512;18.050;2024-01-16T07:31:29;5.30;;;4.90;;
22080;SDS011;11207;59.512;18.050;2024-01-16T07:33:54;5.07;;;4.70;;
22080;SDS011;11207;59.512;18.050;2024-01-16T07:36:20;11.13;;;6.40;;
22080;SDS011;11207;59.512;18.050;2024-01-16T07:38:45;6.60;;;5.77;;
22080;SDS011;11207;59.512;18.050;2024-01-16T07:41:11;6.07;;;5.47;;
22080;SDS011;11207;59.512;18.050;2024-01-16T07:43:37;5.00;;;4.60;;
22080;SDS011;11207;59.512;18.050;2024-01-16T07:46:02;5.30;;;5.00;;
22080;SDS011;11207;59.512;18.050;2024-01-16T07:48:28;5.80;;;5.40;;
22080;SDS011;11207;59.512;18.050;2024-01-16T07:50:54;4.90;;;4.60;;
22080;SDS011;11207;59.512;18.050;2024-01-16T07:53:20;5.23;;;4.93;;
22080;SDS011;11207;59.512;18.050;2024-01-16T07:55:45;5.53;;;5.07;;
22080;SDS011;11207;59.512;18.050;2024-01-16T07:58:11;4.90;;;4.60;;
22080;SDS011;11207;59.512;18.050;2024-01-16T08:00:37;5.17;;;4.87;;
22080;SDS011;11207;59.512;18.050;2024-01-16T08:03:04;5.50;;;5.10;;
22080;SDS011;11207;59.512;18.050;2024-01-16T08:05:36;12.90;;;8.83;;
22080;SDS011;11207;59.512;18.050;2024-01-16T08:08:02;9.70;;;8.80;;
22080;SDS011;11207;59.512;18.050;2024-01-16T08:10:28;7.07;;;6.47;;
22080;SDS011;11207;59.512;18.050;2024-01-16T08:12:54;9.67;;;6.50;;
22080;SDS011;11207;59.512;18.050;2024-01-16T08:15:20;6.20;;;5.70;;
22080;SDS011;11207;59.512;18.050;2024-01-16T08:17:46;5.87;;;5.43;;
22080;SDS011;11207;59.512;18.050;2024-01-16T08:20:13;6.00;;;5.60;;
22080;SDS011;11207;59.512;18.050;2024-01-16T08:22:39;6.00;;;5.60;;
22080;SDS011;11207;59.512;18.050;2024-01-16T08:25:04;5.60;;;5.20;;
22080;SDS011;11207;59.512;18.050;2024-01-16T08:27:30;5.43;;;5.03;;
22080;SDS011;11207;59.512;18.050;2024-01-16T08:29:56;5.47;;;5.07;;
22080;SDS011;11207;59.512;18.050;2024-01-16T08:32:22;5.93;;;5.53;;
22080;SDS011;11207;59.512;18.050;2024-01-16T08:34:47;5.60;;;5.30;;
22080;SDS011;11207;59.512;18.050;2024-01-16T08:37:13;5.60;;;5.20;;
22080;SDS011;11207;59.512;18.050;2024-01-16T08:39:39;6.93;;;6.30;;
22080;SDS011;11207;59.512;18.050;2024-01-16T08:42:05;6.20;;;5.60;;
22080;SDS011;11207;59.512;18.050;2024-01-16T08:44:30;5.93;;;5.50;;
22080;SDS011;11207;59.512;18.050;2024-01-16T08:46:56;5.50;;;5.10;;
22080;SDS011;11207;59.512;18.050;2024-01-16T08:49:23;7.97;;;7.17;;
22080;SDS011;11207;59.512;18.050;2024-01-16T08:51:48;7.80;;;6.33;;
22080;SDS011;11207;59.512;18.050;2024-01-16T08:54:14;6.27;;;5.77;;
22080;SDS011;11207;59.512;18.050;2024-01-16T08:56:39;6.00;;;5.40;;
22080;SDS011;11207;59.512;18.050;2024-01-16T08:59:05;6.87;;;5.30;;
22080;SDS011;11207;59.512;18.050;2024-01-16T09:01:31;5.87;;;5.47;;
22080;SDS011;11207;59.512;18.050;2024-01-16T09:03:56;9.63;;;7.70;;
22080;SDS011;11207;59.512;18.050;2024-01-16T09:06:22;8.30;;;7.50;;
22080;SDS011;11207;59.512;18.050;2024-01-16T09:08:47;8.67;;;6.43;;
22080;SDS011;11207;59.512;18.050;2024-01-16T09:11:13;10.97;;;6.67;;
22080;SDS011;11207;59.512;18.050;2024-01-16T09:13:39;6.37;;;5.73;;
22080;SDS011;11207;59.512;18.050;2024-01-16T09:16:04;6.83;;;5.77;;
22080;SDS011;11207;59.512;18.050;2024-01-16T09:18:30;6.00;;;5.50;;
22080;SDS011;11207;59.512;18.050;2024-01-16T09:20:55;5.73;;;5.33;;
22080;SDS011;11207;59.512;18.050;2024-01-16T09:23:22;6.77;;;5.37;;
22080;SDS011;11207;59.512;18.050;2024-01-16T09:25:47;5.87;;;5.47;;
22080;SDS011;11207;59.512;18.050;2024-01-16T09:28:13;6.07;;;5.57;;
22080;SDS011;11207;59.512;18.050;2024-01-16T09:30:39;6.67;;;6.07;;
22080;SDS011;11207;59.512;18.050;2024-01-16T09:33:06;10.03;;;6.30;;
22080;SDS011;11207;59.512;18.050;2024-01-16T09:35:32;5.77;;;5.37;;
22080;SDS011;11207;59.512;18.050;2024-01-16T09:37:58;5.93;;;5.43;;
22080;SDS011;11207;59.512;18.050;2024-01-16T09:40:24;6.17;;;5.63;;
22080;SDS011;11207;59.512;18.050;2024-01-16T09:42:51;6.20;;;5.70;;
22080;SDS011;11207;59.512;18.050;2024-01-16T09:45:19;5.43;;;5.13;;
22080;SDS011;11207;59.512;18.050;2024-01-16T09:47:49;11.30;;;7.57;;
22080;SDS011;11207;59.512;18.050;2024-01-16T09:50:16;15.30;;;10.87;;
22080;SDS011;11207;59.512;18.050;2024-01-16T09:52:45;14.40;;;9.17;;
22080;SDS011;11207;59.512;18.050;2024-01-16T09:55:11;12.73;;;8.80;;
22080;SDS011;11207;59.512;18.050;2024-01-16T09:57:39;9.43;;;6.87;;
22080;SDS011;11207;59.512;18.050;2024-01-16T10:00:06;7.27;;;6.57;;
22080;SDS011;11207;59.512;18.050;2024-01-16T10:02:37;6.93;;;6.17;;
22080;SDS011;11207;59.512;18.050;2024-01-16T10:05:04;7.37;;;6.67;;
22080;SDS011;11207;59.512;18.050;2024-01-16T10:07:30;12.07;;;7.63;;
22080;SDS011;11207;59.512;18.050;2024-01-16T10:09:58;11.77;;;7.93;;
22080;SDS011;11207;59.512;18.050;2024-01-16T10:12:24;14.63;;;8.90;;
22080;SDS011;11207;59.512;18.050;2024-01-16T10:14:50;14.83;;;9.07;;
22080;SDS011;11207;59.512;18.050;2024-01-16T10:17:17;12.17;;;8.17;;
22080;SDS011;11207;59.512;18.050;2024-01-16T10:19:50;12.93;;;8.50;;
22080;SDS011;11207;59.512;18.050;2024-01-16T10:22:20;9.93;;;7.47;;
22080;SDS011;11207;59.512;18.050;2024-01-16T10:25:11;7.97;;;7.23;;
22080;SDS011;11207;59.512;18.050;2024-01-16T10:27:41;9.67;;;6.70;;
22080;SDS011;11207;59.512;18.050;2024-01-16T10:30:08;7.80;;;7.10;;
22080;SDS011;11207;59.512;18.050;2024-01-16T10:32:37;10.63;;;8.27;;
22080;SDS011;11207;59.512;18.050;2024-01-16T10:35:13;13.07;;;8.70;;
22080;SDS011;11207;59.512;18.050;2024-01-16T10:40:09;7.50;;;6.73;;
22080;SDS011;11207;59.512;18.050;2024-01-16T10:42:34;6.93;;;6.33;;
22080;SDS011;11207;59.512;18.050;2024-01-16T10:45:00;6.93;;;6.23;;
22080;SDS011;11207;59.512;18.050;2024-01-16T10:47:26;6.90;;;6.20;;
22080;SDS011;11207;59.512;18.050;2024-01-16T10:49:52;8.80;;;7.07;;
22080;SDS011;11207;59.512;18.050;2024-01-16T10:52:19;10.27;;;8.50;;
22080;SDS011;11207;59.512;18.050;2024-01-16T10:54:50;9.00;;;8.00;;
22080;SDS011;11207;59.512;18.050;2024-01-16T10:57:17;9.97;;;7.30;;
22080;SDS011;11207;59.512;18.050;2024-01-16T11:02:33;8.27;;;7.23;;
22080;SDS011;11207;59.512;18.050;2024-01-16T11:05:04;8.07;;;7.20;;
22080;SDS011;11207;59.512;18.050;2024-01-16T11:07:31;9.53;;;6.63;;
22080;SDS011;11207;59.512;18.050;2024-01-16T11:10:01;6.10;;;5.60;;
22080;SDS011;11207;59.512;18.050;2024-01-16T11:12:27;6.57;;;6.00;;
22080;SDS011;11207;59.512;18.050;2024-01-16T11:14:55;6.00;;;5.50;;
22080;SDS011;11207;59.512;18.050;2024-01-16T11:17:26;6.27;;;5.67;;
22080;SDS011;11207;59.512;18.050;2024-01-16T11:19:54;5.93;;;5.37;;
22080;SDS011;11207;59.512;18.050;2024-01-16T11:22:20;6.77;;;6.17;;
22080;SDS011;11207;59.512;18.050;2024-01-16T11:25:06;6.97;;;6.30;;
22080;SDS011;11207;59.512;18.050;2024-01-16T11:27:34;6.37;;;5.83;;
22080;SDS011;11207;59.512;18.050;2024-01-16T11:30:00;5.37;;;4.97;;
22080;SDS011;11207;59.512;18.050;2024-01-16T11:32:32;5.60;;;5.20;;
22080;SDS011;11207;59.512;18.050;2024-01-16T11:35:06;6.07;;;5.67;;
22080;SDS011;11207;59.512;18.050;2024-01-16T11:37:36;6.77;;;6.27;;
22080;SDS011;11207;59.512;18.050;2024-01-16T11:42:43;6.03;;;5.53;;
22080;SDS011;11207;59.512;18.050;2024-01-16T11:48:10;5.43;;;5.03;;
22080;SDS011;11207;59.512;18.050;2024-01-16T11:50:35;5.33;;;4.93;;
22080;SDS011;11207;59.512;18.050;2024-01-16T11:53:01;6.77;;;5.97;;
22080;SDS011;11207;59.512;18.050;2024-01-16T11:55:27;5.93;;;5.37;;
22080;SDS011;11207;59.512;18.050;2024-01-16T12:00:47;6.60;;;6.00;;
22080;SDS011;11207;59.512;18.050;2024-01-16T12:03:18;10.00;;;6.13;;
22080;SDS011;11207;59.512;18.050;2024-01-16T12:05:59;6.83;;;6.23;;
22080;SDS011;11207;59.512;18.050;2024-01-16T12:08:26;7.10;;;6.40;;
22080;SDS011;11207;59.512;18.050;2024-01-16T12:10:52;6.90;;;6.30;;
22080;SDS011;11207;59.512;18.050;2024-01-16T12:13:18;7.47;;;6.87;;
22080;SDS011;11207;59.512;18.050;2024-01-16T12:15:43;7.07;;;6.40;;
22080;SDS011;11207;59.512;18.050;2024-01-16T12:18:17;7.73;;;7.00;;
22080;SDS011;11207;59.512;18.050;2024-01-16T12:20:43;7.97;;;7.10;;
22080;SDS011;11207;59.512;18.050;2024-01-16T12:23:09;6.63;;;6.10;;
22080;SDS011;11207;59.512;18.050;2024-01-16T12:25:35;6.00;;;5.50;;
22080;SDS011;11207;59.512;18.050;2024-01-16T12:28:06;5.17;;;4.87;;
22080;SDS011;11207;59.512;18.050;2024-01-16T12:30:33;6.63;;;4.40;;
22080;SDS011;11207;59.512;18.050;2024-01-16T12:33:06;4.70;;;4.40;;
22080;SDS011;11207;59.512;18.050;2024-01-16T12:35:34;5.10;;;4.80;;
22080;SDS011;11207;59.512;18.050;2024-01-16T12:38:10;4.70;;;4.40;;
22080;SDS011;11207;59.512;18.050;2024-01-16T12:40:45;5.23;;;4.93;;
22080;SDS011;11207;59.512;18.050;2024-01-16T12:43:13;5.73;;;5.23;;
22080;SDS011;11207;59.512;18.050;2024-01-16T12:45:40;5.37;;;4.97;;
22080;SDS011;11207;59.512;18.050;2024-01-16T12:48:06;5.53;;;5.13;;
22080;SDS011;11207;59.512;18.050;2024-01-16T12:50:33;5.13;;;4.50;;
22080;SDS011;11207;59.512;18.050;2024-01-16T12:53:08;5.00;;;4.70;;
22080;SDS011;11207;59.512;18.050;2024-01-16T12:55:38;4.67;;;4.37;;
22080;SDS011;11207;59.512;18.050;2024-01-16T13:00:49;5.03;;;4.73;;
22080;SDS011;11207;59.512;18.050;2024-01-16T13:03:16;4.80;;;4.50;;
22080;SDS011;11207;59.512;18.050;2024-01-16T13:05:54;4.97;;;4.67;;
22080;SDS011;11207;59.512;18.050;2024-01-16T13:08:23;5.00;;;4.70;;
22080;SDS011;11207;59.512;18.050;2024-01-16T13:11:08;5.37;;;4.87;;
22080;SDS011;11207;59.512;18.050;2024-01-16T13:13:35;5.73;;;5.27;;
22080;SDS011;11207;59.512;18.050;2024-01-16T13:16:02;5.30;;;4.80;;
22080;SDS011;11207;59.512;18.050;2024-01-16T13:18:31;5.20;;;4.90;;
22080;SDS011;11207;59.512;18.050;2024-01-16T13:20:59;5.27;;;4.87;;
22080;SDS011;11207;59.512;18.050;2024-01-16T13:23:26;5.57;;;5.07;;
22080;SDS011;11207;59.512;18.050;2024-01-16T13:25:53;5.97;;;5.43;;
22080;SDS011;11207;59.512;18.050;2024-01-16T13:28:25;5.63;;;5.23;;
22080;SDS011;11207;59.512;18.050;2024-01-16T13:30:52;5.80;;;5.10;;
22080;SDS011;11207;59.512;18.050;2024-01-16T13:33:18;5.90;;;5.40;;
22080;SDS011;11207;59.512;18.050;2024-01-16T13:35:45;5.17;;;4.87;;
22080;SDS011;11207;59.512;18.050;2024-01-16T13:38:12;6.53;;;4.57;;
22080;SDS011;11207;59.512;18.050;2024-01-16T13:40:40;5.73;;;5.27;;
22080;SDS011;11207;59.512;18.050;2024-01-16T13:43:06;6.50;;;5.13;;
22080;SDS011;11207;59.512;18.050;2024-01-16T13:45:32;5.77;;;5.33;;
22080;SDS011;11207;59.512;18.050;2024-01-16T13:47:58;5.57;;;5.17;;
22080;SDS011;11207;59.512;18.050;2024-01-16T13:50:26;5.60;;;5.20;;
22080;SDS011;11207;59.512;18.050;2024-01-16T13:52:51;5.33;;;4.93;;
22080;SDS011;11207;59.512;18.050;2024-01-16T13:55:18;5.50;;;5.10;;
22080;SDS011;11207;59.512;18.050;2024-01-16T13:57:44;5.30;;;4.80;;
22080;SDS011;11207;59.512;18.050;2024-01-16T14:00:11;5.03;;;4.73;;
22080;SDS011;11207;59.512;18.050;2024-01-16T14:02:44;5.10;;;4.70;;
22080;SDS011;11207;59.512;18.050;2024-01-16T14:05:11;5.70;;;5.20;;
22080;SDS011;11207;59.512;18.050;2024-01-16T14:07:42;5.43;;;5.03;;
22080;SDS011;11207;59.512;18.050;2024-01-16T14:10:13;6.03;;;5.40;;
22080;SDS011;11207;59.512;18.050;2024-01-16T14:12:39;5.53;;;5.03;;
22080;SDS011;11207;59.512;18.050;2024-01-16T14:15:11;5.47;;;5.07;;
22080;SDS011;11207;59.512;18.050;2024-01-16T14:17:46;6.00;;;5.50;;
22080;SDS011;11207;59.512;18.050;2024-01-16T14:20:14;5.73;;;5.33;;
22080;SDS011;11207;59.512;18.050;2024-01-16T14:22:40;6.07;;;5.50;;
22080;SDS011;11207;59.512;18.050;2024-01-16T14:25:07;5.83;;;5.43;;
22080;SDS011;11207;59.512;18.050;2024-01-16T14:27:39;5.60;;;5.20;;
22080;SDS011;11207;59.512;18.050;2024-01-16T14:30:12;5.33;;;4.97;;
22080;SDS011;11207;59.512;18.050;2024-01-16T14:32:40;6.03;;;5.53;;
22080;SDS011;11207;59.512;18.050;2024-01-16T14:35:07;6.13;;;5.27;;
22080;SDS011;11207;59.512;18.050;2024-01-16T14:37:34;5.50;;;5.10;;
22080;SDS011;11207;59.512;18.050;2024-01-16T14:40:04;5.80;;;5.30;;
22080;SDS011;11207;59.512;18.050;2024-01-16T14:42:33;6.50;;;5.90;;
22080;SDS011;11207;59.512;18.050;2024-01-16T14:45:02;5.77;;;5.27;;
22080;SDS011;11207;59.512;18.050;2024-01-16T14:47:28;5.80;;;5.30;;